Time;durP1;ratioP1;P1;durP2;ratioP2;P2;SDS_P1;SDS_P2;PMS_P1;PMS_P2;Temp;Humidity;BMP_temperature;BMP_pressure;BME280_temperature;BME280_humidity;BME280_pressure;Samples;Min_cycle;Max_cycle;Signal;HPM_P1;HPM_P2
2023/08/10 00:01:12;;;;;;;4.20;1.30;;;;;;;16.20;52.30;100947.16;21036800;28;20701;-80
2023/08/10 00:11:18;;;;;;;4.47;1.40;;;;;;;15.94;55.24;100949.47;21013134;28;20214;-80
2023/08/10 00:21:21;;;;;;;3.60;1.40;;;;;;;15.85;54.54;100940.22;21063537;28;20214;-80
2023/08/10 00:31:24;;;;;;;3.70;1.42;;;;;;;15.77;55.07;100956.13;21041867;28;20765;-80
2023/08/10 00:41:26;;;;;;;3.22;1.10;;;;;;;15.70;55.65;100945.34;21041859;28;20222;-80
2023/08/10 00:51:29;;;;;;;4.00;1.20;;;;;;;15.92;56.00;100946.13;21056577;28;20634;-81
2023/08/10 01:01:32;;;;;;;3.83;1.42;;;;;;;15.36;56.40;100945.63;21022819;28;20261;-80
2023/08/10 01:11:51;;;;;;;3.55;1.52;;;;;;;15.95;55.09;100951.13;21053488;28;20579;-81
2023/08/10 01:22:02;;;;;;;3.80;1.90;;;;;;;15.86;54.93;100965.38;21071436;28;20223;-79
2023/08/10 01:32:12;;;;;;;5.82;1.75;;;;;;;15.74;55.07;100973.81;21056989;28;20195;-80
2023/08/10 01:42:15;;;;;;;3.88;1.50;;;;;;;15.74;56.12;100963.31;21036524;28;20235;-80
2023/08/10 01:52:19;;;;;;;4.75;1.83;;;;;;;15.59;55.21;100980.16;21019066;28;20195;-80
2023/08/10 02:02:21;;;;;;;5.95;1.90;;;;;;;15.89;55.13;100989.41;21017234;28;20222;-80
2023/08/10 02:12:24;;;;;;;7.10;2.03;;;;;;;15.54;56.02;100992.53;21031757;28;20256;-80
2023/08/10 02:22:28;;;;;;;4.80;1.92;;;;;;;15.50;56.74;100999.25;21017590;28;20229;-79
2023/08/10 02:32:30;;;;;;;4.90;2.50;;;;;;;15.45;56.59;100995.47;21016997;28;20198;-81
2023/08/10 02:42:33;;;;;;;4.82;2.03;;;;;;;14.89;58.04;100987.47;21031432;28;20223;-79
2023/08/10 02:52:36;;;;;;;3.20;1.77;;;;;;;15.44;57.81;100984.47;20919864;28;20244;-80
2023/08/10 03:02:39;;;;;;;4.63;1.80;;;;;;;15.62;57.25;100982.28;20966225;28;21661;-80
2023/08/10 03:12:44;;;;;;;6.70;2.30;;;;;;;15.50;56.34;100994.41;20963208;28;20508;-80
2023/08/10 03:22:47;;;;;;;4.50;2.30;;;;;;;15.61;55.92;100981.44;20955584;28;20267;-80
2023/08/10 03:32:50;;;;;;;3.07;1.90;;;;;;;15.45;56.68;100983.28;20953897;28;20268;-79
2023/08/10 03:42:53;;;;;;;4.63;2.17;;;;;;;15.34;57.82;100982.84;20938370;28;20215;-80
2023/08/10 03:52:56;;;;;;;5.57;2.33;;;;;;;15.29;57.12;100985.06;20947315;28;20187;-79
2023/08/10 04:02:59;;;;;;;4.70;1.93;;;;;;;15.31;57.56;100994.06;20970859;28;20295;-80
2023/08/10 04:13:02;;;;;;;6.60;2.67;;;;;;;15.23;58.22;101020.47;20951398;28;20238;-80
2023/08/10 04:23:31;;;;;;;6.07;2.38;;;;;;;15.04;58.99;101024.59;20919497;28;20554;-80
2023/08/10 04:33:34;;;;;;;7.57;2.58;;;;;;;14.95;59.25;101029.44;20940489;28;20202;-79
2023/08/10 04:43:37;;;;;;;3.67;2.40;;;;;;;14.73;60.55;101029.72;20996230;28;20242;-80
2023/08/10 04:53:39;;;;;;;7.20;2.40;;;;;;;15.09;58.98;101044.22;20932903;28;20187;-79
2023/08/10 05:03:42;;;;;;;4.77;2.10;;;;;;;14.80;59.28;101058.38;20936385;28;20224;-80
2023/08/10 05:13:45;;;;;;;5.17;2.73;;;;;;;15.01;58.37;101058.47;20920806;28;20526;-79
2023/08/10 05:23:47;;;;;;;5.20;2.40;;;;;;;14.86;58.83;101057.00;20940073;28;20215;-79
2023/08/10 05:33:50;;;;;;;3.93;2.33;;;;;;;15.04;58.52;101064.28;20943514;28;20200;-80
2023/08/10 05:43:52;;;;;;;5.83;2.43;;;;;;;14.76;59.18;101063.06;20927772;28;20267;-80
2023/08/10 05:53:55;;;;;;;12.60;3.23;;;;;;;15.38;58.01;101056.72;21006935;28;20295;-81
2023/08/10 06:03:59;;;;;;;10.05;3.92;;;;;;;14.88;59.44;101066.00;21039779;28;20229;-79
2023/08/10 06:14:02;;;;;;;6.17;3.43;;;;;;;14.90;59.60;101066.50;20998910;28;20203;-80
2023/08/10 06:24:08;;;;;;;4.95;2.80;;;;;;;14.84;59.84;101076.34;21042917;28;20291;-81
2023/08/10 06:34:11;;;;;;;5.65;2.45;;;;;;;15.12;58.74;101070.25;21046293;28;20260;-80
2023/08/10 06:44:13;;;;;;;7.93;2.40;;;;;;;15.53;57.15;101070.31;21021681;28;20283;-78
2023/08/10 06:54:16;;;;;;;4.85;2.65;;;;;;;15.07;59.47;101074.13;21028741;28;20487;-79
2023/08/10 07:04:19;;;;;;;5.93;2.42;;;;;;;15.02;59.19;101082.81;20999760;28;20218;-79
2023/08/10 07:14:21;;;;;;;5.80;1.65;;;;;;;16.13;54.76;101077.50;21031513;28;20602;-79
2023/08/10 07:24:25;;;;;;;6.63;1.65;;;;;;;16.07;54.94;101079.75;21038645;28;20676;-82
2023/08/10 07:34:28;;;;;;;2.67;1.30;;;;;;;16.40;50.13;101067.53;21018064;28;20199;-79
2023/08/10 07:44:30;;;;;;;6.43;1.52;;;;;;;15.78;52.34;101068.47;21003901;28;20222;-83
2023/08/10 07:54:32;;;;;;;4.30;1.10;;;;;;;16.06;51.13;101085.75;21026220;28;20487;-78
2023/08/10 08:04:35;;;;;;;5.17;0.90;;;;;;;16.73;48.99;101087.44;21018926;28;20642;-82
2023/08/10 08:14:38;;;;;;;4.27;0.93;;;;;;;16.88;49.08;101069.69;21027889;28;20479;-80
2023/08/10 08:24:41;;;;;;;4.00;0.95;;;;;;;17.69;43.17;101068.66;21098465;28;21906;-82
2023/08/10 08:34:43;;;;;;;4.13;0.82;;;;;;;17.54;45.38;101066.56;21054667;28;20268;-80
2023/08/10 08:44:46;;;;;;;4.75;0.70;;;;;;;18.34;39.49;101060.00;21038337;28;20256;-78
2023/08/10 08:54:49;;;;;;;2.60;0.88;;;;;;;18.84;40.29;101056.50;21067486;28;20655;-81
2023/08/10 09:04:54;;;;;;;3.50;0.68;;;;;;;18.54;41.93;101044.72;21061475;28;20221;-82
2023/08/10 09:15:08;;;;;;;3.58;0.85;;;;;;;18.86;41.65;101039.88;21084918;28;20597;-79
2023/08/10 09:25:11;;;;;;;6.43;1.08;;;;;;;18.96;39.55;101031.59;21037590;28;20248;-82
2023/08/10 09:35:18;;;;;;;3.17;0.70;;;;;;;18.81;38.66;101035.28;21046086;28;20256;-83
2023/08/10 09:45:21;;;;;;;1.83;0.70;;;;;;;18.76;38.50;101037.56;21112067;28;20233;-81
2023/08/10 09:55:23;;;;;;;1.27;0.52;;;;;;;19.27;39.02;101044.97;21092232;28;20201;-81
2023/08/10 10:05:26;;;;;;;3.50;1.38;;;;;;;19.76;38.11;101050.19;21076154;28;20230;-79
2023/08/10 10:15:39;;;;;;;3.42;1.02;;;;;;;19.68;39.68;101045.53;21060986;28;20259;-79
2023/08/10 10:26:00;;;;;;;4.32;0.75;;;;;;;20.35;38.71;101031.84;21047113;28;20239;-82
2023/08/10 10:36:14;;;;;;;2.28;0.77;;;;;;;19.22;40.38;101036.72;21066622;28;20214;-82
2023/08/10 10:46:38;;;;;;;5.40;1.33;;;;;;;20.42;40.10;101020.53;21053363;28;20226;-81
2023/08/10 10:56:41;;;;;;;5.22;1.33;;;;;;;20.70;40.41;101015.38;21054293;28;20308;-79
2023/08/10 11:06:44;;;;;;;2.80;0.95;;;;;;;20.60;39.53;101016.03;21082385;28;20559;-81
2023/08/10 11:16:46;;;;;;;2.67;0.90;;;;;;;20.25;38.23;101018.19;21095047;28;20218;-82
2023/08/10 11:26:50;;;;;;;2.13;1.20;;;;;;;20.23;39.46;101006.31;21058014;28;20191;-79
2023/08/10 11:36:54;;;;;;;1.85;0.75;;;;;;;21.32;38.05;100998.00;21030548;28;20511;-77
2023/08/10 11:46:57;;;;;;;2.00;0.70;;;;;;;21.28;38.60;100995.09;21110261;28;20221;-79
2023/08/10 11:57:11;;;;;;;2.15;1.00;;;;;;;20.81;38.98;101006.16;21035016;28;20603;-78
2023/08/10 12:07:21;;;;;;;2.33;0.68;;;;;;;22.30;36.09;100996.81;21041241;28;20714;-81
2023/08/10 12:17:25;;;;;;;1.48;0.70;;;;;;;22.03;37.65;100990.38;21070677;28;20599;-81
2023/08/10 12:27:27;;;;;;;2.90;0.70;;;;;;;22.31;36.37;100987.81;21073981;28;20267;-82
2023/08/10 12:37:30;;;;;;;2.40;0.77;;;;;;;21.85;36.94;100980.72;21052335;28;20256;-80
2023/08/10 12:47:32;;;;;;;1.60;0.50;;;;;;;21.65;37.75;100972.28;21065108;28;20556;-78
2023/08/10 12:57:35;;;;;;;1.00;0.50;;;;;;;21.71;37.95;100973.56;21093545;28;20233;-78
2023/08/10 13:07:39;;;;;;;4.15;0.98;;;;;;;21.60;38.46;100977.53;21053561;28;20211;-77
2023/08/10 13:17:42;;;;;;;2.30;0.57;;;;;;;21.66;38.31;100976.81;21050322;28;20683;-82
2023/08/10 13:27:45;;;;;;;0.95;0.70;;;;;;;22.36;39.13;100986.63;21068941;28;20191;-78
2023/08/10 13:37:48;;;;;;;2.38;1.10;;;;;;;22.48;37.73;100990.06;21047099;28;20256;-78
2023/08/10 13:47:51;;;;;;;4.15;0.82;;;;;;;21.95;37.29;100985.78;21050796;28;20221;-84
2023/08/10 13:57:54;;;;;;;0.88;0.57;;;;;;;22.80;36.49;100980.91;21066687;28;20207;-82
2023/08/10 14:07:57;;;;;;;1.38;0.60;;;;;;;23.37;35.76;100987.94;21056240;28;20220;-77
2023/08/10 14:17:59;;;;;;;0.85;0.60;;;;;;;22.75;36.65;100976.34;21012984;28;20268;-78
2023/08/10 14:28:02;;;;;;;2.15;0.57;;;;;;;22.19;36.31;100975.81;21030952;28;20474;-78
2023/08/10 14:38:05;;;;;;;3.60;0.60;;;;;;;22.63;37.31;100981.59;21030128;28;20260;-77
2023/08/10 14:48:08;;;;;;;1.80;0.70;;;;;;;23.00;35.38;100975.75;21039952;28;20273;-80
2023/08/10 14:58:10;;;;;;;2.67;0.90;;;;;;;23.13;35.60;100991.44;20988159;28;20511;-79
2023/08/10 15:08:13;;;;;;;3.72;0.77;;;;;;;23.15;35.79;100989.00;21006713;28;20242;-77
2023/08/10 15:18:16;;;;;;;3.10;1.25;;;;;;;23.00;35.50;100981.50;21034374;28;20218;-77
2023/08/10 15:28:19;;;;;;;3.63;1.00;;;;;;;22.24;36.35;100984.03;20997127;28;20198;-75
2023/08/10 15:38:22;;;;;;;1.02;0.80;;;;;;;23.05;36.37;100973.34;21010990;28;20258;-77
2023/08/10 15:48:28;;;;;;;2.10;0.93;;;;;;;22.54;37.88;100958.97;21026349;28;20279;-78
2023/08/10 15:58:31;;;;;;;3.50;1.38;;;;;;;23.11;35.34;100950.84;20985154;28;20277;-77
2023/08/10 16:08:33;;;;;;;3.92;1.02;;;;;;;23.94;34.56;100947.97;20986029;28;20240;-78
2023/08/10 16:18:36;;;;;;;3.20;1.23;;;;;;;22.96;36.80;100949.06;21005442;28;20313;-80
2023/08/10 16:28:39;;;;;;;3.95;1.10;;;;;;;23.27;37.59;100950.50;21002837;28;20194;-78
2023/08/10 16:38:42;;;;;;;1.88;0.88;;;;;;;22.07;38.57;100954.81;20970904;28;20260;-77
2023/08/10 16:48:45;;;;;;;1.45;1.10;;;;;;;22.97;37.46;100953.63;21050506;28;20702;-80
2023/08/10 16:58:48;;;;;;;2.58;0.80;;;;;;;23.02;37.23;100954.03;21041579;28;20219;-78
2023/08/10 17:08:51;;;;;;;3.38;0.90;;;;;;;22.99;37.31;100957.72;21044862;28;20515;-77
2023/08/10 17:18:54;;;;;;;1.92;1.42;;;;;;;22.59;37.57;100957.78;20999646;28;20218;-79
2023/08/10 17:28:57;;;;;;;0.55;0.55;;;;;;;22.54;37.42;100970.44;21024458;28;20891;-78
2023/08/10 17:39:11;;;;;;;2.65;0.80;;;;;;;22.53;39.54;100963.06;21023418;28;20567;-77
2023/08/10 17:49:14;;;;;;;1.40;0.80;;;;;;;22.97;37.55;100963.06;20986699;28;20222;-78
2023/08/10 17:59:17;;;;;;;1.55;0.68;;;;;;;22.65;39.44;100971.38;20987722;28;20699;-83
2023/08/10 18:09:20;;;;;;;1.73;0.80;;;;;;;22.30;39.97;100976.75;21018677;28;20239;-80
2023/08/10 18:19:22;;;;;;;1.00;0.75;;;;;;;22.14;40.77;100980.66;21018234;28;20225;-81
2023/08/10 18:29:25;;;;;;;3.67;1.60;;;;;;;22.09;41.78;100969.53;21020301;28;20600;-80
2023/08/10 18:39:29;;;;;;;2.50;1.17;;;;;;;21.74;43.41;100955.59;21039051;28;20215;-78
2023/08/10 18:49:32;;;;;;;3.47;1.00;;;;;;;21.43;45.14;100967.50;21036759;28;20227;-82
2023/08/10 18:59:34;;;;;;;1.08;0.98;;;;;;;21.55;44.24;100961.53;20987169;28;20558;-77
2023/08/10 19:09:39;;;;;;;2.47;1.27;;;;;;;20.91;45.85;100979.78;21017962;28;20252;-81
2023/08/10 19:19:42;;;;;;;3.20;1.35;;;;;;;20.71;46.58;100982.72;21016588;28;20238;-78
2023/08/10 19:29:44;;;;;;;5.03;1.50;;;;;;;20.24;47.89;100985.09;20991944;28;20244;-80
2023/08/10 19:39:48;;;;;;;3.97;1.88;;;;;;;20.40;48.30;100991.50;20991338;28;20292;-79
2023/08/10 19:49:53;;;;;;;3.35;1.80;;;;;;;19.99;49.38;100991.16;21020601;28;20230;-79
2023/08/10 19:59:56;;;;;;;2.83;1.52;;;;;;;19.71;51.37;100990.53;21041309;28;20214;-78
2023/08/10 20:09:59;;;;;;;4.25;2.33;;;;;;;19.97;50.66;100996.41;21002238;28;20218;-78
2023/08/10 20:20:02;;;;;;;2.40;2.10;;;;;;;19.39;53.36;101008.97;21017439;28;20210;-78
2023/08/10 20:30:09;;;;;;;3.78;1.95;;;;;;;19.21;53.84;101015.09;21061681;28;20220;-78
2023/08/10 20:40:11;;;;;;;3.35;1.70;;;;;;;19.45;52.94;101016.06;21031035;28;20276;-79
2023/08/10 20:50:14;;;;;;;1.52;1.42;;;;;;;19.46;53.87;101012.00;20906985;28;20232;-78
2023/08/10 21:00:16;;;;;;;3.50;2.22;;;;;;;19.06;54.37;101015.13;20976706;28;20223;-79
2023/08/10 21:10:19;;;;;;;2.83;2.05;;;;;;;18.81;56.14;101031.59;20924839;28;20224;-78
2023/08/10 21:20:23;;;;;;;3.92;2.05;;;;;;;18.96;54.45;101028.75;20910182;28;20304;-78
2023/08/10 21:30:25;;;;;;;5.90;2.63;;;;;;;18.51;55.95;101037.72;20943379;28;20538;-78
2023/08/10 21:40:29;;;;;;;4.38;1.95;;;;;;;18.96;54.96;101039.31;20919471;28;20250;-78
2023/08/10 21:50:31;;;;;;;4.03;1.85;;;;;;;18.89;54.50;101033.44;20905500;28;20243;-78
2023/08/10 22:00:34;;;;;;;3.25;1.90;;;;;;;18.90;53.38;101029.38;20884778;28;20251;-78
2023/08/10 22:10:37;;;;;;;5.70;1.92;;;;;;;18.38;55.64;101030.44;20894019;28;20704;-79
2023/08/10 22:20:39;;;;;;;3.03;1.75;;;;;;;18.34;55.82;101032.34;20955141;28;20280;-78
2023/08/10 22:30:42;;;;;;;3.08;2.10;;;;;;;18.21;56.20;101036.47;20966022;28;20257;-79
2023/08/10 22:40:45;;;;;;;4.13;1.70;;;;;;;18.15;56.48;101037.94;20971320;28;20587;-79
2023/08/10 22:50:47;;;;;;;6.88;2.28;;;;;;;17.44;58.99;101039.44;21021089;28;20627;-79
2023/08/10 23:00:50;;;;;;;3.30;2.28;;;;;;;17.64;58.33;101028.25;21005931;28;20264;-80
2023/08/10 23:10:53;;;;;;;3.25;2.05;;;;;;;16.93;60.59;101023.94;21040237;28;20210;-79
2023/08/10 23:20:57;;;;;;;5.38;2.67;;;;;;;17.63;58.29;101015.22;21057428;28;20692;-79
2023/08/10 23:31:00;;;;;;;4.50;2.45;;;;;;;17.11;60.79;101027.38;21068451;28;20201;-78
2023/08/10 23:41:05;;;;;;;4.93;2.92;;;;;;;17.41;58.73;101017.38;21057514;28;20275;-79
2023/08/10 23:51:08;;;;;;;3.80;2.38;;;;;;;17.23;59.53;101018.03;21051166;28;20271;-79
